sensor_id;sensor_type;location;lat;lon;timestamp;P1;durP1;ratioP1;P2;durP2;ratioP2
70543;SDS011;58097;48.364;-1.224;2023-05-10T00:01:26;15.63;;;2.95;;
70543;SDS011;58097;48.364;-1.224;2023-05-10T00:03:51;13.90;;;3.72;;
70543;SDS011;58097;48.364;-1.224;2023-05-10T00:06:17;19.95;;;4.47;;
70543;SDS011;58097;48.364;-1.224;2023-05-10T00:08:42;20.20;;;3.58;;
70543;SDS011;58097;48.364;-1.224;2023-05-10T00:11:08;17.52;;;3.10;;
70543;SDS011;58097;48.364;-1.224;2023-05-10T00:13:34;25.40;;;2.88;;
70543;SDS011;58097;48.364;-1.224;2023-05-10T00:15:59;9.95;;;2.13;;
70543;SDS011;58097;48.364;-1.224;2023-05-10T00:18:25;17.38;;;3.42;;
70543;SDS011;58097;48.364;-1.224;2023-05-10T00:20:50;15.32;;;2.55;;
70543;SDS011;58097;48.364;-1.224;2023-05-10T00:23:16;15.93;;;3.25;;
70543;SDS011;58097;48.364;-1.224;2023-05-10T00:25:41;10.60;;;2.30;;
70543;SDS011;58097;48.364;-1.224;2023-05-10T00:28:06;13.38;;;3.28;;
70543;SDS011;58097;48.364;-1.224;2023-05-10T00:30:32;9.25;;;1.83;;
70543;SDS011;58097;48.364;-1.224;2023-05-10T00:32:57;12.13;;;2.50;;
70543;SDS011;58097;48.364;-1.224;2023-05-10T00:35:22;10.57;;;3.22;;
70543;SDS011;58097;48.364;-1.224;2023-05-10T00:37:48;9.13;;;2.30;;
70543;SDS011;58097;48.364;-1.224;2023-05-10T00:40:13;16.83;;;2.97;;
70543;SDS011;58097;48.364;-1.224;2023-05-10T00:42:39;21.90;;;3.33;;
70543;SDS011;58097;48.364;-1.224;2023-05-10T00:45:05;22.67;;;3.13;;
70543;SDS011;58097;48.364;-1.224;2023-05-10T00:47:31;18.75;;;2.78;;
70543;SDS011;58097;48.364;-1.224;2023-05-10T00:49:57;20.67;;;2.88;;
70543;SDS011;58097;48.364;-1.224;2023-05-10T00:52:22;13.52;;;2.78;;
70543;SDS011;58097;48.364;-1.224;2023-05-10T00:54:49;14.02;;;2.65;;
70543;SDS011;58097;48.364;-1.224;2023-05-10T00:57:16;12.65;;;2.13;;
70543;SDS011;58097;48.364;-1.224;2023-05-10T00:59:42;19.25;;;3.42;;
70543;SDS011;58097;48.364;-1.224;2023-05-10T01:02:07;12.73;;;3.08;;
70543;SDS011;58097;48.364;-1.224;2023-05-10T01:04:33;15.98;;;2.78;;
70543;SDS011;58097;48.364;-1.224;2023-05-10T01:07:00;17.65;;;2.15;;
70543;SDS011;58097;48.364;-1.224;2023-05-10T01:09:26;15.45;;;3.22;;
70543;SDS011;58097;48.364;-1.224;2023-05-10T01:11:52;18.60;;;3.10;;
70543;SDS011;58097;48.364;-1.224;2023-05-10T01:14:19;19.85;;;3.35;;
70543;SDS011;58097;48.364;-1.224;2023-05-10T01:16:45;19.10;;;3.00;;
70543;SDS011;58097;48.364;-1.224;2023-05-10T01:22:04;17.02;;;2.78;;
70543;SDS011;58097;48.364;-1.224;2023-05-10T01:35:46;12.60;;;2.78;;
70543;SDS011;58097;48.364;-1.224;2023-05-10T01:38:27;16.98;;;3.10;;
70543;SDS011;58097;48.364;-1.224;2023-05-10T01:43:37;13.73;;;2.45;;
70543;SDS011;58097;48.364;-1.224;2023-05-10T01:46:10;18.98;;;2.78;;
70543;SDS011;58097;48.364;-1.224;2023-05-10T01:48:48;21.30;;;3.08;;
70543;SDS011;58097;48.364;-1.224;2023-05-10T01:51:19;16.42;;;2.85;;
70543;SDS011;58097;48.364;-1.224;2023-05-10T01:53:48;19.13;;;4.05;;
70543;SDS011;58097;48.364;-1.224;2023-05-10T01:56:16;14.93;;;2.25;;
70543;SDS011;58097;48.364;-1.224;2023-05-10T01:58:46;19.15;;;3.20;;
70543;SDS011;58097;48.364;-1.224;2023-05-10T02:01:13;13.18;;;3.38;;
70543;SDS011;58097;48.364;-1.224;2023-05-10T02:03:40;17.35;;;2.83;;
70543;SDS011;58097;48.364;-1.224;2023-05-10T02:06:07;17.67;;;3.03;;
70543;SDS011;58097;48.364;-1.224;2023-05-10T02:08:35;18.77;;;2.60;;
70543;SDS011;58097;48.364;-1.224;2023-05-10T02:11:02;17.35;;;2.40;;
70543;SDS011;58097;48.364;-1.224;2023-05-10T02:13:29;23.70;;;3.17;;
70543;SDS011;58097;48.364;-1.224;2023-05-10T02:15:59;20.08;;;2.78;;
70543;SDS011;58097;48.364;-1.224;2023-05-10T02:18:26;21.33;;;3.33;;
70543;SDS011;58097;48.364;-1.224;2023-05-10T02:20:52;18.80;;;2.90;;
70543;SDS011;58097;48.364;-1.224;2023-05-10T02:23:20;14.40;;;3.03;;
70543;SDS011;58097;48.364;-1.224;2023-05-10T02:25:46;15.23;;;2.67;;
70543;SDS011;58097;48.364;-1.224;2023-05-10T02:28:14;14.38;;;3.08;;
70543;SDS011;58097;48.364;-1.224;2023-05-10T02:30:40;12.93;;;3.38;;
70543;SDS011;58097;48.364;-1.224;2023-05-10T02:33:06;21.23;;;3.03;;
70543;SDS011;58097;48.364;-1.224;2023-05-10T02:35:32;15.50;;;3.58;;
70543;SDS011;58097;48.364;-1.224;2023-05-10T02:38:00;12.73;;;2.40;;
70543;SDS011;58097;48.364;-1.224;2023-05-10T02:40:26;26.60;;;3.90;;
70543;SDS011;58097;48.364;-1.224;2023-05-10T02:42:53;20.75;;;3.42;;
70543;SDS011;58097;48.364;-1.224;2023-05-10T02:45:21;29.10;;;3.60;;
70543;SDS011;58097;48.364;-1.224;2023-05-10T02:47:51;20.48;;;3.63;;
70543;SDS011;58097;48.364;-1.224;2023-05-10T02:50:17;23.42;;;4.10;;
70543;SDS011;58097;48.364;-1.224;2023-05-10T02:52:44;15.52;;;3.42;;
70543;SDS011;58097;48.364;-1.224;2023-05-10T02:55:12;15.82;;;3.42;;
70543;SDS011;58097;48.364;-1.224;2023-05-10T02:58:02;16.05;;;3.33;;
70543;SDS011;58097;48.364;-1.224;2023-05-10T03:00:27;9.10;;;2.38;;
70543;SDS011;58097;48.364;-1.224;2023-05-10T03:02:52;27.17;;;3.47;;
70543;SDS011;58097;48.364;-1.224;2023-05-10T03:05:18;15.70;;;2.85;;
70543;SDS011;58097;48.364;-1.224;2023-05-10T03:07:44;17.67;;;3.97;;
70543;SDS011;58097;48.364;-1.224;2023-05-10T03:10:10;17.88;;;2.95;;
70543;SDS011;58097;48.364;-1.224;2023-05-10T03:15:37;18.65;;;4.03;;
70543;SDS011;58097;48.364;-1.224;2023-05-10T03:18:25;16.77;;;3.60;;
70543;SDS011;58097;48.364;-1.224;2023-05-10T03:20:57;11.73;;;2.47;;
70543;SDS011;58097;48.364;-1.224;2023-05-10T03:23:30;14.25;;;2.70;;
70543;SDS011;58097;48.364;-1.224;2023-05-10T03:26:00;11.77;;;3.08;;
70543;SDS011;58097;48.364;-1.224;2023-05-10T03:28:26;19.10;;;2.85;;
70543;SDS011;58097;48.364;-1.224;2023-05-10T03:30:53;12.13;;;3.58;;
70543;SDS011;58097;48.364;-1.224;2023-05-10T03:33:20;19.13;;;3.05;;
70543;SDS011;58097;48.364;-1.224;2023-05-10T03:35:45;15.93;;;3.20;;
70543;SDS011;58097;48.364;-1.224;2023-05-10T03:38:11;11.88;;;4.10;;
70543;SDS011;58097;48.364;-1.224;2023-05-10T03:40:37;22.60;;;3.03;;
70543;SDS011;58097;48.364;-1.224;2023-05-10T03:43:03;22.77;;;3.45;;
70543;SDS011;58097;48.364;-1.224;2023-05-10T03:45:28;17.98;;;4.00;;
70543;SDS011;58097;48.364;-1.224;2023-05-10T03:47:53;19.40;;;3.83;;
70543;SDS011;58097;48.364;-1.224;2023-05-10T03:50:19;18.15;;;3.22;;
70543;SDS011;58097;48.364;-1.224;2023-05-10T03:52:45;16.02;;;3.42;;
70543;SDS011;58097;48.364;-1.224;2023-05-10T03:55:10;16.63;;;2.17;;
70543;SDS011;58097;48.364;-1.224;2023-05-10T03:57:35;19.92;;;4.40;;
70543;SDS011;58097;48.364;-1.224;2023-05-10T04:00:01;20.83;;;2.92;;
70543;SDS011;58097;48.364;-1.224;2023-05-10T04:02:27;26.40;;;4.63;;
70543;SDS011;58097;48.364;-1.224;2023-05-10T04:04:53;19.52;;;3.97;;
70543;SDS011;58097;48.364;-1.224;2023-05-10T04:07:18;10.15;;;2.75;;
70543;SDS011;58097;48.364;-1.224;2023-05-10T04:09:43;11.15;;;2.58;;
70543;SDS011;58097;48.364;-1.224;2023-05-10T04:12:09;19.60;;;3.30;;
70543;SDS011;58097;48.364;-1.224;2023-05-10T04:14:34;18.10;;;3.78;;
70543;SDS011;58097;48.364;-1.224;2023-05-10T04:17:00;16.20;;;3.55;;
70543;SDS011;58097;48.364;-1.224;2023-05-10T04:19:28;13.00;;;2.85;;
70543;SDS011;58097;48.364;-1.224;2023-05-10T04:21:54;20.35;;;3.47;;
70543;SDS011;58097;48.364;-1.224;2023-05-10T04:24:20;19.95;;;3.65;;
70543;SDS011;58097;48.364;-1.224;2023-05-10T04:26:45;28.08;;;2.45;;
70543;SDS011;58097;48.364;-1.224;2023-05-10T04:29:10;12.93;;;2.88;;
70543;SDS011;58097;48.364;-1.224;2023-05-10T04:31:36;22.48;;;2.90;;
70543;SDS011;58097;48.364;-1.224;2023-05-10T04:34:01;14.98;;;2.97;;
70543;SDS011;58097;48.364;-1.224;2023-05-10T04:36:26;12.20;;;2.90;;
70543;SDS011;58097;48.364;-1.224;2023-05-10T04:38:52;16.60;;;2.60;;
70543;SDS011;58097;48.364;-1.224;2023-05-10T04:41:18;12.07;;;2.28;;
70543;SDS011;58097;48.364;-1.224;2023-05-10T04:43:43;29.15;;;3.83;;
70543;SDS011;58097;48.364;-1.224;2023-05-10T04:46:08;16.58;;;2.63;;
70543;SDS011;58097;48.364;-1.224;2023-05-10T04:48:34;19.58;;;3.67;;
70543;SDS011;58097;48.364;-1.224;2023-05-10T04:50:59;16.95;;;2.67;;
70543;SDS011;58097;48.364;-1.224;2023-05-10T04:53:25;23.35;;;3.53;;
70543;SDS011;58097;48.364;-1.224;2023-05-10T04:55:50;13.10;;;3.50;;
70543;SDS011;58097;48.364;-1.224;2023-05-10T04:58:15;11.75;;;2.38;;
70543;SDS011;58097;48.364;-1.224;2023-05-10T05:00:41;22.52;;;3.63;;
70543;SDS011;58097;48.364;-1.224;2023-05-10T05:03:07;14.68;;;2.88;;
70543;SDS011;58097;48.364;-1.224;2023-05-10T05:05:32;14.95;;;3.63;;
70543;SDS011;58097;48.364;-1.224;2023-05-10T05:07:58;16.80;;;2.72;;
70543;SDS011;58097;48.364;-1.224;2023-05-10T05:10:23;17.63;;;3.10;;
70543;SDS011;58097;48.364;-1.224;2023-05-10T05:12:48;23.15;;;4.40;;
70543;SDS011;58097;48.364;-1.224;2023-05-10T05:15:14;11.45;;;2.90;;
70543;SDS011;58097;48.364;-1.224;2023-05-10T05:17:41;17.55;;;3.00;;
70543;SDS011;58097;48.364;-1.224;2023-05-10T05:20:07;16.27;;;3.95;;
70543;SDS011;58097;48.364;-1.224;2023-05-10T05:22:33;13.75;;;3.15;;
70543;SDS011;58097;48.364;-1.224;2023-05-10T05:24:58;18.77;;;2.70;;
70543;SDS011;58097;48.364;-1.224;2023-05-10T05:27:24;16.55;;;3.67;;
70543;SDS011;58097;48.364;-1.224;2023-05-10T05:29:54;15.20;;;2.85;;
70543;SDS011;58097;48.364;-1.224;2023-05-10T05:32:20;14.75;;;3.22;;
70543;SDS011;58097;48.364;-1.224;2023-05-10T05:34:45;13.85;;;2.90;;
70543;SDS011;58097;48.364;-1.224;2023-05-10T05:37:14;9.63;;;3.05;;
70543;SDS011;58097;48.364;-1.224;2023-05-10T05:39:41;19.98;;;3.33;;
70543;SDS011;58097;48.364;-1.224;2023-05-10T05:42:07;20.60;;;2.75;;
70543;SDS011;58097;48.364;-1.224;2023-05-10T05:44:33;16.88;;;4.95;;
70543;SDS011;58097;48.364;-1.224;2023-05-10T05:46:58;12.73;;;2.90;;
70543;SDS011;58097;48.364;-1.224;2023-05-10T05:49:23;15.30;;;3.53;;
70543;SDS011;58097;48.364;-1.224;2023-05-10T05:51:49;23.40;;;4.20;;
70543;SDS011;58097;48.364;-1.224;2023-05-10T05:54:15;13.13;;;3.10;;
70543;SDS011;58097;48.364;-1.224;2023-05-10T05:56:40;15.07;;;2.97;;
70543;SDS011;58097;48.364;-1.224;2023-05-10T05:59:06;11.10;;;2.60;;
70543;SDS011;58097;48.364;-1.224;2023-05-10T06:01:31;25.48;;;3.38;;
70543;SDS011;58097;48.364;-1.224;2023-05-10T06:03:56;8.65;;;2.47;;
70543;SDS011;58097;48.364;-1.224;2023-05-10T06:06:22;11.95;;;2.70;;
70543;SDS011;58097;48.364;-1.224;2023-05-10T06:08:47;13.10;;;3.08;;
70543;SDS011;58097;48.364;-1.224;2023-05-10T06:11:12;18.08;;;2.88;;
70543;SDS011;58097;48.364;-1.224;2023-05-10T06:13:38;14.07;;;2.92;;
70543;SDS011;58097;48.364;-1.224;2023-05-10T06:16:03;16.63;;;3.78;;
70543;SDS011;58097;48.364;-1.224;2023-05-10T06:18:28;14.13;;;3.53;;
70543;SDS011;58097;48.364;-1.224;2023-05-10T06:20:54;14.40;;;3.28;;
70543;SDS011;58097;48.364;-1.224;2023-05-10T06:23:19;16.13;;;2.53;;
70543;SDS011;58097;48.364;-1.224;2023-05-10T06:25:44;11.50;;;2.88;;
70543;SDS011;58097;48.364;-1.224;2023-05-10T06:28:10;15.13;;;3.45;;
70543;SDS011;58097;48.364;-1.224;2023-05-10T06:30:35;16.67;;;3.70;;
70543;SDS011;58097;48.364;-1.224;2023-05-10T06:33:01;27.00;;;3.70;;
70543;SDS011;58097;48.364;-1.224;2023-05-10T06:35:27;13.27;;;2.05;;
70543;SDS011;58097;48.364;-1.224;2023-05-10T06:37:54;14.93;;;3.33;;
70543;SDS011;58097;48.364;-1.224;2023-05-10T06:40:19;17.70;;;3.25;;
70543;SDS011;58097;48.364;-1.224;2023-05-10T06:42:45;20.45;;;2.75;;
70543;SDS011;58097;48.364;-1.224;2023-05-10T06:45:11;23.20;;;3.53;;
70543;SDS011;58097;48.364;-1.224;2023-05-10T06:47:37;17.17;;;2.55;;
70543;SDS011;58097;48.364;-1.224;2023-05-10T06:50:02;14.18;;;2.90;;
70543;SDS011;58097;48.364;-1.224;2023-05-10T06:52:28;12.73;;;3.40;;
70543;SDS011;58097;48.364;-1.224;2023-05-10T06:54:53;12.20;;;2.55;;
70543;SDS011;58097;48.364;-1.224;2023-05-10T06:57:18;15.10;;;2.47;;
70543;SDS011;58097;48.364;-1.224;2023-05-10T06:59:44;26.23;;;3.53;;
70543;SDS011;58097;48.364;-1.224;2023-05-10T07:02:09;12.40;;;2.40;;
70543;SDS011;58097;48.364;-1.224;2023-05-10T07:04:35;17.55;;;3.10;;
70543;SDS011;58097;48.364;-1.224;2023-05-10T07:07:00;12.23;;;2.63;;
70543;SDS011;58097;48.364;-1.224;2023-05-10T07:09:25;19.23;;;2.65;;
70543;SDS011;58097;48.364;-1.224;2023-05-10T07:11:51;10.50;;;2.97;;
70543;SDS011;58097;48.364;-1.224;2023-05-10T07:14:16;13.02;;;2.40;;
70543;SDS011;58097;48.364;-1.224;2023-05-10T07:16:42;21.15;;;3.15;;
70543;SDS011;58097;48.364;-1.224;2023-05-10T07:19:07;11.70;;;2.30;;
70543;SDS011;58097;48.364;-1.224;2023-05-10T07:21:32;20.77;;;2.72;;
70543;SDS011;58097;48.364;-1.224;2023-05-10T07:23:58;13.18;;;2.72;;
70543;SDS011;58097;48.364;-1.224;2023-05-10T07:26:24;17.70;;;3.10;;
70543;SDS011;58097;48.364;-1.224;2023-05-10T07:28:50;14.10;;;3.17;;
70543;SDS011;58097;48.364;-1.224;2023-05-10T07:31:15;12.00;;;3.17;;
70543;SDS011;58097;48.364;-1.224;2023-05-10T07:33:40;18.10;;;3.03;;
70543;SDS011;58097;48.364;-1.224;2023-05-10T07:36:06;14.73;;;2.92;;
70543;SDS011;58097;48.364;-1.224;2023-05-10T07:38:31;22.10;;;3.25;;
70543;SDS011;58097;48.364;-1.224;2023-05-10T07:40:57;12.65;;;3.60;;
70543;SDS011;58097;48.364;-1.224;2023-05-10T07:43:22;20.48;;;4.22;;
70543;SDS011;58097;48.364;-1.224;2023-05-10T07:45:47;12.15;;;3.65;;
70543;SDS011;58097;48.364;-1.224;2023-05-10T07:48:13;17.30;;;3.92;;
70543;SDS011;58097;48.364;-1.224;2023-05-10T07:50:38;13.43;;;2.60;;
70543;SDS011;58097;48.364;-1.224;2023-05-10T07:53:04;19.30;;;2.85;;
70543;SDS011;58097;48.364;-1.224;2023-05-10T07:55:29;24.15;;;4.50;;
70543;SDS011;58097;48.364;-1.224;2023-05-10T07:57:54;22.35;;;4.07;;
70543;SDS011;58097;48.364;-1.224;2023-05-10T08:00:20;12.93;;;3.00;;
70543;SDS011;58097;48.364;-1.224;2023-05-10T08:02:46;14.02;;;3.13;;
70543;SDS011;58097;48.364;-1.224;2023-05-10T08:05:12;19.83;;;3.47;;
70543;SDS011;58097;48.364;-1.224;2023-05-10T08:07:37;22.42;;;3.60;;
70543;SDS011;58097;48.364;-1.224;2023-05-10T08:10:03;14.30;;;3.13;;
70543;SDS011;58097;48.364;-1.224;2023-05-10T08:12:28;17.30;;;2.92;;
70543;SDS011;58097;48.364;-1.224;2023-05-10T08:14:54;7.88;;;2.78;;
70543;SDS011;58097;48.364;-1.224;2023-05-10T08:17:19;13.45;;;3.30;;
70543;SDS011;58097;48.364;-1.224;2023-05-10T08:19:44;12.77;;;3.15;;
70543;SDS011;58097;48.364;-1.224;2023-05-10T08:22:10;19.60;;;3.85;;
70543;SDS011;58097;48.364;-1.224;2023-05-10T08:24:35;14.80;;;3.28;;
70543;SDS011;58097;48.364;-1.224;2023-05-10T08:27:03;10.93;;;2.65;;
70543;SDS011;58097;48.364;-1.224;2023-05-10T08:29:29;15.02;;;2.47;;
70543;SDS011;58097;48.364;-1.224;2023-05-10T08:31:55;15.13;;;3.28;;
70543;SDS011;58097;48.364;-1.224;2023-05-10T08:34:20;11.18;;;3.60;;
70543;SDS011;58097;48.364;-1.224;2023-05-10T08:36:45;15.27;;;2.58;;
70543;SDS011;58097;48.364;-1.224;2023-05-10T08:39:11;15.15;;;3.13;;
70543;SDS011;58097;48.364;-1.224;2023-05-10T08:41:36;10.55;;;2.63;;
70543;SDS011;58097;48.364;-1.224;2023-05-10T08:44:04;11.70;;;3.35;;
70543;SDS011;58097;48.364;-1.224;2023-05-10T08:46:30;10.73;;;2.08;;
70543;SDS011;58097;48.364;-1.224;2023-05-10T08:48:58;7.78;;;2.40;;
70543;SDS011;58097;48.364;-1.224;2023-05-10T08:51:29;8.00;;;2.47;;
70543;SDS011;58097;48.364;-1.224;2023-05-10T08:54:01;11.40;;;2.25;;
70543;SDS011;58097;48.364;-1.224;2023-05-10T08:56:28;14.65;;;2.53;;
70543;SDS011;58097;48.364;-1.224;2023-05-10T08:58:53;9.65;;;2.40;;
70543;SDS011;58097;48.364;-1.224;2023-05-10T09:01:20;8.57;;;2.03;;
70543;SDS011;58097;48.364;-1.224;2023-05-10T09:03:46;9.70;;;3.92;;
70543;SDS011;58097;48.364;-1.224;2023-05-10T09:06:13;10.65;;;2.45;;
70543;SDS011;58097;48.364;-1.224;2023-05-10T09:08:38;11.30;;;2.65;;
70543;SDS011;58097;48.364;-1.224;2023-05-10T09:11:06;11.38;;;2.05;;
70543;SDS011;58097;48.364;-1.224;2023-05-10T09:13:32;11.18;;;2.83;;
70543;SDS011;58097;48.364;-1.224;2023-05-10T09:15:58;11.40;;;2.78;;
70543;SDS011;58097;48.364;-1.224;2023-05-10T09:18:24;10.02;;;3.03;;
70543;SDS011;58097;48.364;-1.224;2023-05-10T09:20:50;7.43;;;2.83;;
70543;SDS011;58097;48.364;-1.224;2023-05-10T09:23:15;11.57;;;2.80;;
70543;SDS011;58097;48.364;-1.224;2023-05-10T09:25:41;8.65;;;2.67;;
70543;SDS011;58097;48.364;-1.224;2023-05-10T09:28:07;7.80;;;2.30;;
70543;SDS011;58097;48.364;-1.224;2023-05-10T09:30:34;11.27;;;2.58;;
70543;SDS011;58097;48.364;-1.224;2023-05-10T09:33:00;12.90;;;3.47;;
70543;SDS011;58097;48.364;-1.224;2023-05-10T09:35:26;9.10;;;2.13;;
70543;SDS011;58097;48.364;-1.224;2023-05-10T09:37:54;7.95;;;1.80;;
70543;SDS011;58097;48.364;-1.224;2023-05-10T09:40:25;10.70;;;1.88;;
70543;SDS011;58097;48.364;-1.224;2023-05-10T09:45:28;6.50;;;1.88;;
70543;SDS011;58097;48.364;-1.224;2023-05-10T09:47:55;3.28;;;1.55;;
70543;SDS011;58097;48.364;-1.224;2023-05-10T09:50:21;2.42;;;1.20;;
70543;SDS011;58097;48.364;-1.224;2023-05-10T09:55:16;6.25;;;1.42;;
70543;SDS011;58097;48.364;-1.224;2023-05-10T09:57:43;2.95;;;1.35;;
70543;SDS011;58097;48.364;-1.224;2023-05-10T10:00:09;3.30;;;1.00;;
70543;SDS011;58097;48.364;-1.224;2023-05-10T10:02:35;2.35;;;1.23;;
70543;SDS011;58097;48.364;-1.224;2023-05-10T10:05:01;5.25;;;1.13;;
70543;SDS011;58097;48.364;-1.224;2023-05-10T10:07:28;3.45;;;2.05;;
70543;SDS011;58097;48.364;-1.224;2023-05-10T10:09:54;5.88;;;1.55;;
70543;SDS011;58097;48.364;-1.224;2023-05-10T10:12:20;3.00;;;1.83;;
70543;SDS011;58097;48.364;-1.224;2023-05-10T10:14:46;9.48;;;1.77;;
70543;SDS011;58097;48.364;-1.224;2023-05-10T10:17:13;6.53;;;2.05;;
70543;SDS011;58097;48.364;-1.224;2023-05-10T10:19:39;3.47;;;1.88;;
70543;SDS011;58097;48.364;-1.224;2023-05-10T10:22:04;2.95;;;1.65;;
70543;SDS011;58097;48.364;-1.224;2023-05-10T10:24:30;3.80;;;1.55;;
70543;SDS011;58097;48.364;-1.224;2023-05-10T10:26:57;5.63;;;1.75;;
70543;SDS011;58097;48.364;-1.224;2023-05-10T10:29:41;6.97;;;2.28;;
70543;SDS011;58097;48.364;-1.224;2023-05-10T10:34:46;10.48;;;3.13;;
70543;SDS011;58097;48.364;-1.224;2023-05-10T10:37:12;6.13;;;2.17;;
70543;SDS011;58097;48.364;-1.224;2023-05-10T10:39:38;6.32;;;2.25;;
70543;SDS011;58097;48.364;-1.224;2023-05-10T10:42:03;6.90;;;1.45;;
70543;SDS011;58097;48.364;-1.224;2023-05-10T10:49:27;4.63;;;1.80;;
70543;SDS011;58097;48.364;-1.224;2023-05-10T10:54:38;6.07;;;1.98;;
70543;SDS011;58097;48.364;-1.224;2023-05-10T10:57:13;8.05;;;2.35;;
70543;SDS011;58097;48.364;-1.224;2023-05-10T10:59:43;5.13;;;1.90;;
70543;SDS011;58097;48.364;-1.224;2023-05-10T11:05:22;9.57;;;2.28;;
70543;SDS011;58097;48.364;-1.224;2023-05-10T11:08:01;16.65;;;2.08;;
70543;SDS011;58097;48.364;-1.224;2023-05-10T11:10:35;7.15;;;1.60;;
70543;SDS011;58097;48.364;-1.224;2023-05-10T11:15:32;5.35;;;2.20;;
70543;SDS011;58097;48.364;-1.224;2023-05-10T11:18:01;6.60;;;1.55;;
70543;SDS011;58097;48.364;-1.224;2023-05-10T11:20:56;10.80;;;1.80;;
70543;SDS011;58097;48.364;-1.224;2023-05-10T11:23:47;6.45;;;1.52;;
70543;SDS011;58097;48.364;-1.224;2023-05-10T11:26:15;11.57;;;2.05;;
70543;SDS011;58097;48.364;-1.224;2023-05-10T11:28:47;6.90;;;1.83;;
70543;SDS011;58097;48.364;-1.224;2023-05-10T11:31:14;8.68;;;1.85;;
70543;SDS011;58097;48.364;-1.224;2023-05-10T11:33:43;6.82;;;1.83;;
70543;SDS011;58097;48.364;-1.224;2023-05-10T11:36:10;9.07;;;2.22;;
70543;SDS011;58097;48.364;-1.224;2023-05-10T11:38:40;11.95;;;2.35;;
70543;SDS011;58097;48.364;-1.224;2023-05-10T11:41:07;8.05;;;2.13;;
70543;SDS011;58097;48.364;-1.224;2023-05-10T11:43:34;9.88;;;2.00;;
70543;SDS011;58097;48.364;-1.224;2023-05-10T11:46:01;17.85;;;2.90;;
70543;SDS011;58097;48.364;-1.224;2023-05-10T11:48:29;10.20;;;2.55;;
70543;SDS011;58097;48.364;-1.224;2023-05-10T11:50:54;17.20;;;2.80;;
70543;SDS011;58097;48.364;-1.224;2023-05-10T11:53:22;9.57;;;2.97;;
70543;SDS011;58097;48.364;-1.224;2023-05-10T11:55:47;12.15;;;2.80;;
70543;SDS011;58097;48.364;-1.224;2023-05-10T11:58:13;12.77;;;2.75;;
70543;SDS011;58097;48.364;-1.224;2023-05-10T12:00:38;14.30;;;2.88;;
70543;SDS011;58097;48.364;-1.224;2023-05-10T12:03:04;12.32;;;2.63;;
70543;SDS011;58097;48.364;-1.224;2023-05-10T12:05:33;13.35;;;3.08;;
70543;SDS011;58097;48.364;-1.224;2023-05-10T12:08:20;14.13;;;2.28;;
70543;SDS011;58097;48.364;-1.224;2023-05-10T12:10:47;13.05;;;2.15;;
70543;SDS011;58097;48.364;-1.224;2023-05-10T12:13:13;13.63;;;2.67;;
70543;SDS011;58097;48.364;-1.224;2023-05-10T12:15:40;7.43;;;2.20;;
70543;SDS011;58097;48.364;-1.224;2023-05-10T12:18:07;9.48;;;2.95;;
70543;SDS011;58097;48.364;-1.224;2023-05-10T12:20:35;11.38;;;2.25;;
70543;SDS011;58097;48.364;-1.224;2023-05-10T12:23:00;11.25;;;3.08;;
70543;SDS011;58097;48.364;-1.224;2023-05-10T12:25:32;12.60;;;2.67;;
70543;SDS011;58097;48.364;-1.224;2023-05-10T12:27:59;10.13;;;2.42;;
70543;SDS011;58097;48.364;-1.224;2023-05-10T12:30:29;9.55;;;2.28;;
70543;SDS011;58097;48.364;-1.224;2023-05-10T12:33:00;9.02;;;1.65;;
70543;SDS011;58097;48.364;-1.224;2023-05-10T12:35:43;5.97;;;2.22;;
70543;SDS011;58097;48.364;-1.224;2023-05-10T12:41:00;7.50;;;1.55;;
70543;SDS011;58097;48.364;-1.224;2023-05-10T12:43:32;9.18;;;1.70;;
70543;SDS011;58097;48.364;-1.224;2023-05-10T12:46:03;11.80;;;1.92;;
70543;SDS011;58097;48.364;-1.224;2023-05-10T12:48:30;12.25;;;1.77;;
70543;SDS011;58097;48.364;-1.224;2023-05-10T12:50:56;14.05;;;2.03;;
70543;SDS011;58097;48.364;-1.224;2023-05-10T12:53:22;10.55;;;1.83;;
70543;SDS011;58097;48.364;-1.224;2023-05-10T12:55:47;13.40;;;1.88;;
70543;SDS011;58097;48.364;-1.224;2023-05-10T12:58:12;12.30;;;2.03;;
70543;SDS011;58097;48.364;-1.224;2023-05-10T13:00:38;6.03;;;1.58;;
70543;SDS011;58097;48.364;-1.224;2023-05-10T13:03:04;14.07;;;1.85;;
70543;SDS011;58097;48.364;-1.224;2023-05-10T13:05:33;4.90;;;1.75;;
70543;SDS011;58097;48.364;-1.224;2023-05-10T13:07:58;6.75;;;1.80;;
70543;SDS011;58097;48.364;-1.224;2023-05-10T13:10:24;5.68;;;1.67;;
70543;SDS011;58097;48.364;-1.224;2023-05-10T13:12:50;9.23;;;1.50;;
70543;SDS011;58097;48.364;-1.224;2023-05-10T13:15:15;9.45;;;1.77;;
70543;SDS011;58097;48.364;-1.224;2023-05-10T13:17:41;13.15;;;1.88;;
70543;SDS011;58097;48.364;-1.224;2023-05-10T13:20:07;7.47;;;1.58;;
70543;SDS011;58097;48.364;-1.224;2023-05-10T13:22:34;9.82;;;1.70;;
70543;SDS011;58097;48.364;-1.224;2023-05-10T13:24:59;3.75;;;1.75;;
70543;SDS011;58097;48.364;-1.224;2023-05-10T13:27:25;10.52;;;2.13;;
70543;SDS011;58097;48.364;-1.224;2023-05-10T13:29:50;6.20;;;1.48;;
70543;SDS011;58097;48.364;-1.224;2023-05-10T13:32:15;6.57;;;1.27;;
70543;SDS011;58097;48.364;-1.224;2023-05-10T13:34:41;5.90;;;1.45;;
70543;SDS011;58097;48.364;-1.224;2023-05-10T13:37:06;14.15;;;3.97;;
70543;SDS011;58097;48.364;-1.224;2023-05-10T13:39:32;10.85;;;1.23;;
70543;SDS011;58097;48.364;-1.224;2023-05-10T13:41:59;4.75;;;1.30;;
70543;SDS011;58097;48.364;-1.224;2023-05-10T13:44:24;9.32;;;1.25;;
70543;SDS011;58097;48.364;-1.224;2023-05-10T13:46:51;9.15;;;1.95;;
70543;SDS011;58097;48.364;-1.224;2023-05-10T13:49:16;4.53;;;1.48;;
70543;SDS011;58097;48.364;-1.224;2023-05-10T13:51:42;8.75;;;1.50;;
70543;SDS011;58097;48.364;-1.224;2023-05-10T13:54:08;9.48;;;1.48;;
70543;SDS011;58097;48.364;-1.224;2023-05-10T13:56:34;5.28;;;1.00;;
70543;SDS011;58097;48.364;-1.224;2023-05-10T13:58:59;12.15;;;1.35;;
70543;SDS011;58097;48.364;-1.224;2023-05-10T14:01:25;2.90;;;1.38;;
70543;SDS011;58097;48.364;-1.224;2023-05-10T14:03:50;4.85;;;1.15;;
70543;SDS011;58097;48.364;-1.224;2023-05-10T14:06:16;7.05;;;1.10;;
70543;SDS011;58097;48.364;-1.224;2023-05-10T14:08:42;10.27;;;1.50;;
70543;SDS011;58097;48.364;-1.224;2023-05-10T14:11:07;4.18;;;1.02;;
70543;SDS011;58097;48.364;-1.224;2023-05-10T14:13:33;5.80;;;1.70;;
70543;SDS011;58097;48.364;-1.224;2023-05-10T14:15:58;7.43;;;1.30;;
70543;SDS011;58097;48.364;-1.224;2023-05-10T14:18:25;6.95;;;1.70;;
70543;SDS011;58097;48.364;-1.224;2023-05-10T14:20:54;8.38;;;1.92;;
70543;SDS011;58097;48.364;-1.224;2023-05-10T14:23:21;3.45;;;0.95;;
70543;SDS011;58097;48.364;-1.224;2023-05-10T14:25:49;5.68;;;1.23;;
70543;SDS011;58097;48.364;-1.224;2023-05-10T14:28:15;6.18;;;1.17;;
70543;SDS011;58097;48.364;-1.224;2023-05-10T14:30:42;2.90;;;1.27;;
70543;SDS011;58097;48.364;-1.224;2023-05-10T14:33:07;6.70;;;1.70;;
70543;SDS011;58097;48.364;-1.224;2023-05-10T14:35:33;2.75;;;1.10;;
70543;SDS011;58097;48.364;-1.224;2023-05-10T14:37:58;7.18;;;1.30;;
70543;SDS011;58097;48.364;-1.224;2023-05-10T14:40:24;5.38;;;1.40;;
70543;SDS011;58097;48.364;-1.224;2023-05-10T14:42:49;10.40;;;1.60;;
70543;SDS011;58097;48.364;-1.224;2023-05-10T14:45:15;12.38;;;1.70;;
70543;SDS011;58097;48.364;-1.224;2023-05-10T14:47:41;4.28;;;1.58;;
70543;SDS011;58097;48.364;-1.224;2023-05-10T14:50:06;7.30;;;1.23;;
70543;SDS011;58097;48.364;-1.224;2023-05-10T14:52:32;6.10;;;1.40;;
70543;SDS011;58097;48.364;-1.224;2023-05-10T14:54:57;10.05;;;1.50;;
70543;SDS011;58097;48.364;-1.224;2023-05-10T14:57:24;7.93;;;1.05;;
70543;SDS011;58097;48.364;-1.224;2023-05-10T14:59:49;7.28;;;1.77;;
70543;SDS011;58097;48.364;-1.224;2023-05-10T15:02:14;6.30;;;1.05;;
70543;SDS011;58097;48.364;-1.224;2023-05-10T15:04:40;10.45;;;1.50;;
70543;SDS011;58097;48.364;-1.224;2023-05-10T15:07:05;4.28;;;0.95;;